Aérodrome :
LOGIN :

S'inscrire | Disclaimer

   EN    FR    IT 

 










Légende :    VFR   VFR Marginal   IFR   IFR Intensif   IFR Très Intensif
Visi : 
Plafond : 
>= 8 km
>= 3000ft
5 à 8 km
1000 à 3000 ft
1500m à 5 km
500 à 1000 ft
800 à 1500m
200 à 500 ft
< 800m
< 200 ft
Symboles :   Orages  Brouillard  Fortes neiges  Fortes précipitations  Vent > 20 kt
SIGMETs :   Divers  Orages  Givrage  Turbulence  Onde Orograph.  Cendres Volcan.







- Altitude de l'aérodrome : 423 ft
- Code IATA : PIS
- Voir les cartes d'approche


LFBI - Poitiers

DERNIER METAR :
  • 181500Z AUTO 26014KT 9999 ////// 26/13 Q1016

METARs EXPIRÉS :
  • 181430Z AUTO 24013KT 210V270 9999 ////// 26/12 Q1016
  • 181400Z AUTO 24012KT 200V280 9999 ////// 26/12 Q1016
  • 181330Z AUTO 25011KT 210V280 9999 ////// 26/12 Q1016
  • 181300Z AUTO 25010KT 220V290 9999 ////// 25/12 Q1016
  • 181230Z AUTO 23010KT 180V300 9999 ////// 25/12 Q1016

TAF TAF LFBI
Valide du 18 à 12h jusqu'au 19 à 12h UTC


181100Z 1812/1912 27008KT CAVOK
TEMPO 1812/1818 28012G22KT
BECMG 1900/1902 VRB02KT BKN010
BECMG 1905/1907 BKN020
BECMG 1910/1912 CAVOK
Pas de NOTAMs connus pour ce terrain.



MET'MAP, la Météo Aéronautique d'un coup d'oeil ! - Copyright ORBIFLY Décembre 2007 - Disclaimer

ORBIFLY MET'MAP TEAM :

Programmation & Développement : Alexandra Zaïnal
Conception & Développement : Baudouin d'Aumeries
Co-Programmation & Développement : Marc-Olivier Méhu
Soutien technique & logistique : Manuel Goepfert

Contact : metmap@orbifly.com




SOURCES & CREDITS :

   NOAA